Time;durP1;ratioP1;P1;durP2;ratioP2;P2;SDS_P1;SDS_P2;PMS_P1;PMS_P2;Temp;Humidity;BMP_temperature;BMP_pressure;BME280_temperature;BME280_humidity;BME280_pressure;Samples;Min_cycle;Max_cycle;Signal;HPM_P1;HPM_P2
2021/04/10 00:01:36;;;;;;;8.65;1.95;;;12.20;32.50;;;;;;4998079;28;20034;-81
2021/04/10 00:04:04;;;;;;;6.57;1.90;;;12.10;33.70;;;;;;4994652;28;20058;-78
2021/04/10 00:06:30;;;;;;;11.07;2.65;;;12.00;33.40;;;;;;5002268;28;20562;-80
2021/04/10 00:08:55;;;;;;;15.82;2.47;;;11.90;33.30;;;;;;4996125;28;20045;-80
2021/04/10 00:11:21;;;;;;;13.98;2.08;;;11.80;35.30;;;;;;5005560;28;20053;-78
2021/04/10 00:13:46;;;;;;;5.75;1.90;;;11.80;33.50;;;;;;5003006;28;20037;-79
2021/04/10 00:16:12;;;;;;;6.85;1.95;;;11.90;33.10;;;;;;5008369;28;20034;-79
2021/04/10 00:18:38;;;;;;;8.70;2.25;;;11.90;32.60;;;;;;5003473;28;20023;-81
2021/04/10 00:21:04;;;;;;;7.03;2.60;;;11.90;33.20;;;;;;4987840;28;20034;-80
2021/04/10 00:23:29;;;;;;;7.18;2.50;;;11.80;33.10;;;;;;5019306;28;20041;-80
2021/04/10 00:25:55;;;;;;;7.97;1.90;;;11.80;33.90;;;;;;5004782;28;20693;-79
2021/04/10 00:28:21;;;;;;;9.70;2.03;;;11.70;35.00;;;;;;4998635;28;20519;-80
2021/04/10 00:30:46;;;;;;;7.05;1.95;;;11.70;33.80;;;;;;5006365;28;20036;-80
2021/04/10 00:33:12;;;;;;;7.85;2.13;;;11.60;35.00;;;;;;5005835;28;20108;-80
2021/04/10 00:35:37;;;;;;;4.45;1.58;;;11.50;36.20;;;;;;5006633;28;20042;-80
2021/04/10 00:38:03;;;;;;;9.60;2.20;;;11.80;34.20;;;;;;5002842;28;20072;-79
2021/04/10 00:40:29;;;;;;;9.82;1.50;;;12.20;33.00;;;;;;5000048;28;20050;-79
2021/04/10 00:42:54;;;;;;;9.35;1.92;;;12.30;32.60;;;;;;5004402;28;20038;-80
2021/04/10 00:45:20;;;;;;;5.05;1.60;;;12.40;32.30;;;;;;5005295;28;20039;-79
2021/04/10 00:47:46;;;;;;;5.70;1.77;;;12.50;31.70;;;;;;4986251;28;20693;-80
2021/04/10 00:50:12;;;;;;;3.97;1.77;;;12.50;31.40;;;;;;5000275;28;20153;-79
2021/04/10 00:52:38;;;;;;;8.30;1.75;;;12.60;31.10;;;;;;5008353;28;20025;-80
2021/04/10 00:55:06;;;;;;;6.05;2.20;;;12.50;31.10;;;;;;5000595;28;20033;-80
2021/04/10 00:57:31;;;;;;;7.93;1.60;;;12.50;31.00;;;;;;4996794;28;20054;-79
2021/04/10 00:59:57;;;;;;;8.35;2.47;;;12.60;30.80;;;;;;5004287;28;20053;-80
2021/04/10 01:02:23;;;;;;;10.05;1.98;;;12.50;30.80;;;;;;4996286;28;20056;-80
2021/04/10 01:04:49;;;;;;;10.25;2.33;;;12.60;30.20;;;;;;5004105;28;20541;-80
2021/04/10 01:07:15;;;;;;;7.72;1.67;;;12.60;30.20;;;;;;5004092;28;20037;-80
2021/04/10 01:09:41;;;;;;;11.18;1.48;;;12.80;29.60;;;;;;4987765;28;20031;-79
2021/04/10 01:12:28;;;;;;;3.72;1.73;;;12.80;29.70;;;;;;5008220;28;20101;-80
2021/04/10 01:15:02;;;;;;;4.22;1.65;;;12.90;29.40;;;;;;5015873;28;20029;-80
2021/04/10 01:17:30;;;;;;;11.05;2.15;;;12.90;29.30;;;;;;5002701;28;20049;-80
2021/04/10 01:20:09;;;;;;;11.88;1.67;;;12.90;29.30;;;;;;4991966;28;20030;-80
2021/04/10 01:23:09;;;;;;;11.65;1.58;;;12.90;29.80;;;;;;4987204;28;20030;-80
2021/04/10 01:25:58;;;;;;;3.83;1.20;;;12.90;29.40;;;;;;5003097;28;20038;-80
2021/04/10 01:28:35;;;;;;;9.23;1.48;;;13.00;29.40;;;;;;5010244;28;20100;-79
2021/04/10 01:31:02;;;;;;;4.78;1.30;;;13.00;29.20;;;;;;5014955;28;20033;-80
2021/04/10 01:33:32;;;;;;;4.22;1.13;;;13.00;29.30;;;;;;5003916;28;20021;-80
2021/04/10 01:36:00;;;;;;;14.52;1.70;;;13.00;29.20;;;;;;4990622;28;20038;-80
2021/04/10 01:38:29;;;;;;;5.32;1.70;;;12.90;29.40;;;;;;4987641;28;20084;-80
2021/04/10 01:41:00;;;;;;;5.70;1.17;;;12.90;29.50;;;;;;5001081;28;20034;-80
2021/04/10 01:43:28;;;;;;;6.88;1.73;;;12.90;29.60;;;;;;5000841;28;20032;-80
2021/04/10 01:45:56;;;;;;;5.03;1.45;;;13.00;29.20;;;;;;5011639;28;20369;-80
2021/04/10 01:48:23;;;;;;;8.70;1.80;;;13.00;29.20;;;;;;5008578;28;20025;-80
2021/04/10 01:50:51;;;;;;;4.38;1.17;;;13.00;29.30;;;;;;4992983;28;20412;-79
2021/04/10 01:53:18;;;;;;;6.53;1.42;;;13.00;29.50;;;;;;5006647;28;20393;-80
2021/04/10 01:55:48;;;;;;;3.13;1.48;;;12.90;29.40;;;;;;4987445;28;20077;-79
2021/04/10 01:58:16;;;;;;;2.45;1.13;;;12.90;29.40;;;;;;5017240;28;20033;-81
2021/04/10 02:00:44;;;;;;;5.65;1.30;;;12.90;29.70;;;;;;5002104;28;20064;-78
2021/04/10 02:03:11;;;;;;;3.03;1.40;;;12.90;29.70;;;;;;5003551;28;20034;-80
2021/04/10 02:05:38;;;;;;;16.25;1.67;;;12.90;30.20;;;;;;5012570;28;20045;-79
2021/04/10 02:08:06;;;;;;;5.25;1.45;;;12.90;29.80;;;;;;5007355;28;20109;-80
2021/04/10 02:10:32;;;;;;;4.53;1.45;;;12.90;29.80;;;;;;5006269;28;20506;-80
2021/04/10 02:12:59;;;;;;;6.65;1.48;;;12.80;31.30;;;;;;5002553;28;20060;-80
2021/04/10 02:15:24;;;;;;;7.70;1.20;;;12.70;30.50;;;;;;5011246;28;20029;-80
2021/04/10 02:17:51;;;;;;;5.82;1.08;;;12.70;30.60;;;;;;5006053;28;20025;-80
2021/04/10 02:20:17;;;;;;;6.35;1.30;;;12.70;31.00;;;;;;5017221;28;20033;-80
2021/04/10 02:22:49;;;;;;;4.35;1.60;;;12.70;30.50;;;;;;5010682;28;20033;-80
2021/04/10 02:25:17;;;;;;;5.82;1.70;;;12.70;30.60;;;;;;4990333;28;20060;-80
2021/04/10 02:27:42;;;;;;;10.27;1.20;;;12.70;30.70;;;;;;4988625;28;20504;-80
2021/04/10 02:30:08;;;;;;;2.97;1.17;;;12.60;31.40;;;;;;5003800;28;20066;-80
2021/04/10 02:32:42;;;;;;;7.78;1.60;;;12.50;31.60;;;;;;4993804;28;20519;-80
2021/04/10 02:35:15;;;;;;;8.55;1.77;;;12.50;31.60;;;;;;5009765;28;20034;-79
2021/04/10 02:37:42;;;;;;;9.07;1.60;;;12.60;31.40;;;;;;4987578;28;20401;-80
2021/04/10 02:40:10;;;;;;;13.60;1.50;;;12.60;31.60;;;;;;5003439;28;20027;-80
2021/04/10 02:42:42;;;;;;;5.85;1.48;;;12.60;31.60;;;;;;5006749;28;20464;-80
2021/04/10 02:45:09;;;;;;;5.63;0.98;;;12.60;31.50;;;;;;5003503;28;20022;-79
2021/04/10 02:47:37;;;;;;;8.00;1.45;;;12.60;32.20;;;;;;5008373;28;20101;-80
2021/04/10 02:50:05;;;;;;;2.88;1.20;;;12.50;32.40;;;;;;4988173;28;20507;-80
2021/04/10 02:52:39;;;;;;;5.82;1.83;;;12.50;32.60;;;;;;5002870;28;20500;-79
2021/04/10 02:55:07;;;;;;;6.28;2.00;;;12.40;32.80;;;;;;5001561;28;20031;-78
2021/04/10 02:57:33;;;;;;;3.65;1.13;;;12.50;32.40;;;;;;5005184;28;20473;-80
2021/04/10 03:00:03;;;;;;;7.25;1.33;;;12.50;32.50;;;;;;4997992;28;20500;-79
2021/04/10 03:02:29;;;;;;;4.53;1.33;;;12.50;32.50;;;;;;5004838;28;20072;-79
2021/04/10 03:04:56;;;;;;;11.25;1.65;;;12.40;33.20;;;;;;5009188;28;20033;-79
2021/04/10 03:07:22;;;;;;;7.95;1.10;;;12.40;33.30;;;;;;4991299;28;20690;-78
2021/04/10 03:09:49;;;;;;;3.95;1.35;;;12.50;32.80;;;;;;4991359;28;20087;-79
2021/04/10 03:12:16;;;;;;;4.25;1.17;;;12.60;33.20;;;;;;5005399;28;20443;-78
2021/04/10 03:14:43;;;;;;;7.10;1.48;;;12.50;33.10;;;;;;5001985;28;20033;-78
2021/04/10 03:17:14;;;;;;;5.07;1.30;;;12.50;32.70;;;;;;5007715;28;20755;-78
2021/04/10 03:19:41;;;;;;;11.30;1.85;;;12.50;33.40;;;;;;4999999;28;20032;-78
2021/04/10 03:22:06;;;;;;;4.85;1.17;;;12.50;33.60;;;;;;5004938;28;20030;-76
2021/04/10 03:24:32;;;;;;;7.78;1.00;;;12.50;33.60;;;;;;5004089;28;20022;-77
2021/04/10 03:26:58;;;;;;;3.90;1.10;;;12.50;33.80;;;;;;5003698;28;20025;-77
2021/04/10 03:29:24;;;;;;;5.13;1.40;;;12.50;35.10;;;;;;5000907;28;20061;-77
2021/04/10 03:31:50;;;;;;;5.05;1.33;;;12.50;36.20;;;;;;5005148;28;20025;-79
2021/04/10 03:34:16;;;;;;;3.55;1.10;;;12.40;36.30;;;;;;5006429;28;20389;-78
2021/04/10 03:36:42;;;;;;;8.80;1.58;;;12.40;36.40;;;;;;4993635;28;20465;-78
2021/04/10 03:39:08;;;;;;;4.35;1.33;;;12.40;36.50;;;;;;5003533;28;20050;-79
2021/04/10 03:41:34;;;;;;;3.90;1.20;;;12.30;37.80;;;;;;5009697;28;20063;-77
2021/04/10 03:43:59;;;;;;;5.07;1.65;;;12.30;39.30;;;;;;4992843;28;20133;-78
2021/04/10 03:46:25;;;;;;;8.02;2.88;;;12.20;42.20;;;;;;4992268;28;20512;-77
2021/04/10 03:48:51;;;;;;;3.17;1.05;;;12.20;40.90;;;;;;5003013;28;20516;-77
2021/04/10 03:51:17;;;;;;;2.85;1.15;;;12.20;41.30;;;;;;5003245;28;20030;-79
2021/04/10 03:53:42;;;;;;;2.78;1.10;;;12.20;41.10;;;;;;5008572;28;20516;-78
2021/04/10 03:56:09;;;;;;;3.85;1.48;;;12.20;40.70;;;;;;5001738;28;20133;-80
2021/04/10 03:58:35;;;;;;;5.88;1.48;;;12.10;40.80;;;;;;5008188;28;20026;-78
2021/04/10 04:01:00;;;;;;;7.32;1.38;;;12.10;41.60;;;;;;5001289;28;20029;-79
2021/04/10 04:03:26;;;;;;;7.65;1.67;;;12.10;42.00;;;;;;5004633;28;20034;-79
2021/04/10 04:05:51;;;;;;;3.75;1.20;;;12.10;42.20;;;;;;5002837;28;20037;-79
2021/04/10 04:08:17;;;;;;;4.75;1.33;;;12.10;42.60;;;;;;4986179;28;20034;-79
2021/04/10 04:10:42;;;;;;;9.20;1.13;;;12.10;42.50;;;;;;4982316;28;20029;-78
2021/04/10 04:13:08;;;;;;;4.35;1.20;;;12.10;42.90;;;;;;5003872;28;20034;-79
2021/04/10 04:15:33;;;;;;;5.13;1.17;;;12.10;42.60;;;;;;4998895;28;20025;-78
2021/04/10 04:17:59;;;;;;;5.20;1.10;;;12.00;42.70;;;;;;5006644;28;20441;-79
2021/04/10 04:20:25;;;;;;;5.60;1.13;;;12.00;43.00;;;;;;5004250;28;20048;-79
2021/04/10 04:22:52;;;;;;;3.20;1.00;;;12.00;42.70;;;;;;5005305;28;20033;-79
2021/04/10 04:25:17;;;;;;;6.57;1.95;;;12.00;43.00;;;;;;4982522;28;20029;-79
2021/04/10 04:27:43;;;;;;;3.17;1.58;;;12.00;43.00;;;;;;5004703;28;20038;-79
2021/04/10 04:30:10;;;;;;;5.50;1.15;;;12.00;43.10;;;;;;5000121;28;20049;-79
2021/04/10 04:32:35;;;;;;;3.28;1.27;;;11.90;43.30;;;;;;5007127;28;20545;-79
2021/04/10 04:35:01;;;;;;;4.80;1.30;;;12.00;43.70;;;;;;4994975;28;20026;-79
2021/04/10 04:37:26;;;;;;;3.53;1.33;;;12.00;44.00;;;;;;5000077;28;20026;-77
2021/04/10 04:39:52;;;;;;;6.70;1.30;;;11.90;44.10;;;;;;5005945;28;20038;-81
2021/04/10 04:42:18;;;;;;;1.88;0.90;;;12.00;45.20;;;;;;5007012;28;20030;-81
2021/04/10 04:44:44;;;;;;;3.15;1.20;;;11.80;44.90;;;;;;5001493;28;20840;-78
2021/04/10 04:47:10;;;;;;;6.65;1.65;;;11.80;44.90;;;;;;5007550;28;20130;-79
2021/04/10 04:49:36;;;;;;;4.40;0.90;;;11.80;45.00;;;;;;4996885;28;20113;-78
2021/04/10 04:52:01;;;;;;;2.80;1.00;;;11.80;45.30;;;;;;5001468;28;20029;-78
2021/04/10 04:54:27;;;;;;;3.58;1.15;;;11.80;45.60;;;;;;4996154;28;20058;-77
2021/04/10 04:56:52;;;;;;;6.10;1.20;;;11.70;45.60;;;;;;5002735;28;20113;-77
2021/04/10 04:59:18;;;;;;;3.17;0.93;;;11.70;45.50;;;;;;5001185;28;20061;-78
2021/04/10 05:01:44;;;;;;;7.68;1.33;;;11.70;45.60;;;;;;5005340;28;20060;-78
2021/04/10 05:04:11;;;;;;;4.28;1.33;;;11.70;45.60;;;;;;5017046;28;20068;-78
2021/04/10 05:06:37;;;;;;;4.43;0.85;;;11.60;45.50;;;;;;5007667;28;20125;-78
2021/04/10 05:09:03;;;;;;;8.90;1.42;;;11.60;47.10;;;;;;5000921;28;20105;-78
2021/04/10 05:11:29;;;;;;;6.60;1.40;;;11.50;56.90;;;;;;5000082;28;20060;-78
2021/04/10 05:13:54;;;;;;;3.05;1.23;;;11.30;62.20;;;;;;5006599;28;20041;-78
2021/04/10 05:16:20;;;;;;;2.42;0.98;;;11.20;70.00;;;;;;5006043;28;20026;-78
2021/04/10 05:18:45;;;;;;;4.25;0.80;;;11.10;71.80;;;;;;4998541;28;20461;-77
2021/04/10 05:21:11;;;;;;;8.82;1.65;;;11.00;71.10;;;;;;5007708;28;20548;-79
2021/04/10 05:23:37;;;;;;;7.65;1.30;;;10.90;72.60;;;;;;5004043;28;20439;-78
2021/04/10 05:26:03;;;;;;;3.90;1.33;;;10.80;76.40;;;;;;5001261;28;20022;-78
2021/04/10 05:28:29;;;;;;;16.42;2.17;;;10.90;75.80;;;;;;5006248;28;20030;-79
2021/04/10 05:30:54;;;;;;;2.70;1.23;;;10.90;74.30;;;;;;4985638;28;20022;-78
2021/04/10 05:33:20;;;;;;;5.13;1.20;;;10.90;73.30;;;;;;5003250;28;20049;-79
2021/04/10 05:35:46;;;;;;;3.28;1.08;;;10.90;73.80;;;;;;5012748;28;20041;-79
2021/04/10 05:38:11;;;;;;;4.15;1.35;;;11.00;73.50;;;;;;4988908;28;20034;-80
2021/04/10 05:40:37;;;;;;;3.60;1.27;;;10.90;73.60;;;;;;5003962;28;20025;-79
2021/04/10 05:43:03;;;;;;;3.35;1.40;;;10.90;73.10;;;;;;5010209;28;20073;-78
2021/04/10 05:45:28;;;;;;;7.85;1.60;;;11.00;73.10;;;;;;4982882;28;20034;-78
2021/04/10 05:47:54;;;;;;;2.17;0.93;;;11.00;72.20;;;;;;5000822;28;20511;-79
2021/04/10 05:50:20;;;;;;;2.33;1.20;;;11.00;72.80;;;;;;5000183;28;20045;-78
2021/04/10 05:52:47;;;;;;;4.47;1.30;;;11.00;71.90;;;;;;5003475;28;20025;-78
2021/04/10 05:55:13;;;;;;;6.22;1.45;;;11.10;71.30;;;;;;4994422;28;20021;-79
2021/04/10 05:57:39;;;;;;;10.15;1.70;;;11.20;70.90;;;;;;5014748;28;20030;-78
2021/04/10 06:00:05;;;;;;;8.32;1.48;;;11.20;69.70;;;;;;5012113;28;20033;-80
2021/04/10 06:02:31;;;;;;;8.18;1.50;;;11.20;68.80;;;;;;5015954;28;20025;-79
2021/04/10 06:04:57;;;;;;;4.25;1.20;;;11.20;68.80;;;;;;5001801;28;20147;-80
2021/04/10 06:07:22;;;;;;;4.80;1.10;;;11.20;67.90;;;;;;5011470;28;20512;-79
2021/04/10 06:09:48;;;;;;;7.47;1.63;;;11.30;67.50;;;;;;5014429;28;20037;-76
2021/04/10 06:12:13;;;;;;;7.07;1.10;;;11.40;67.00;;;;;;5017219;28;20060;-77
2021/04/10 06:14:39;;;;;;;2.60;1.20;;;11.40;65.80;;;;;;5006861;28;20041;-77
2021/04/10 06:17:04;;;;;;;6.45;1.20;;;11.40;65.70;;;;;;5011851;28;20074;-78
2021/04/10 06:19:30;;;;;;;7.05;1.48;;;11.40;65.80;;;;;;5012818;28;20030;-80
2021/04/10 06:21:55;;;;;;;5.47;1.35;;;11.40;65.00;;;;;;5019350;28;20037;-78
2021/04/10 06:24:24;;;;;;;9.00;1.70;;;11.40;65.10;;;;;;4996123;28;20053;-79
2021/04/10 06:26:50;;;;;;;3.00;1.20;;;11.40;64.80;;;;;;5000326;28;20044;-79
2021/04/10 06:29:15;;;;;;;7.10;1.10;;;11.40;64.30;;;;;;5013090;28;20117;-78
2021/04/10 06:31:41;;;;;;;9.77;1.73;;;11.40;64.30;;;;;;5010540;28;20037;-77
2021/04/10 06:34:07;;;;;;;5.47;1.08;;;11.40;64.30;;;;;;5007975;28;20104;-79
2021/04/10 06:36:33;;;;;;;4.07;1.30;;;11.40;64.00;;;;;;5008093;28;20026;-77
2021/04/10 06:38:58;;;;;;;2.20;1.20;;;11.50;63.80;;;;;;4987410;28;20041;-78
2021/04/10 06:41:24;;;;;;;8.25;1.20;;;11.50;63.80;;;;;;5007296;28;20057;-79
2021/04/10 06:43:51;;;;;;;3.35;1.13;;;11.60;63.80;;;;;;5004843;28;20029;-78
2021/04/10 06:46:16;;;;;;;5.93;1.17;;;11.70;63.40;;;;;;5003118;28;20100;-80
2021/04/10 06:48:44;;;;;;;3.53;1.45;;;11.70;63.20;;;;;;5010947;28;20601;-78
2021/04/10 06:51:12;;;;;;;11.57;1.50;;;11.70;64.10;;;;;;5004045;28;20666;-79
2021/04/10 06:53:43;;;;;;;5.95;1.58;;;11.70;63.60;;;;;;4987897;28;20068;-78
2021/04/10 06:56:12;;;;;;;4.95;1.42;;;11.60;63.70;;;;;;5006809;28;20068;-79
2021/04/10 06:58:49;;;;;;;10.40;1.60;;;11.60;63.50;;;;;;5006779;28;20029;-78
2021/04/10 07:01:17;;;;;;;5.28;1.25;;;11.70;63.90;;;;;;4995566;28;20108;-78
2021/04/10 07:03:43;;;;;;;4.32;1.25;;;11.70;64.90;;;;;;5005841;28;20053;-79
2021/04/10 07:06:12;;;;;;;9.32;1.70;;;11.60;67.10;;;;;;5003279;28;20512;-77
2021/04/10 07:08:39;;;;;;;1.83;1.10;;;11.60;69.60;;;;;;5000464;28;20030;-79
2021/04/10 07:11:06;;;;;;;2.58;1.25;;;11.60;71.50;;;;;;5006089;28;20025;-78
2021/04/10 07:13:32;;;;;;;8.07;2.05;;;11.60;71.90;;;;;;5008405;28;20052;-77
2021/04/10 07:16:02;;;;;;;8.05;1.92;;;11.50;71.20;;;;;;5000265;28;20076;-78
2021/04/10 07:18:30;;;;;;;6.78;1.45;;;11.50;70.70;;;;;;5005571;28;20026;-77
2021/04/10 07:21:13;;;;;;;3.55;1.55;;;11.50;69.80;;;;;;4999540;28;20678;-78
2021/04/10 07:23:49;;;;;;;4.93;1.30;;;11.50;68.50;;;;;;5003826;28;20029;-78
2021/04/10 07:26:16;;;;;;;8.00;1.80;;;11.50;68.10;;;;;;4993681;28;20053;-79
2021/04/10 07:28:42;;;;;;;4.43;1.20;;;11.50;67.80;;;;;;5014315;28;20056;-79
2021/04/10 07:31:10;;;;;;;5.53;1.02;;;11.50;67.50;;;;;;4987067;28;20026;-80
2021/04/10 07:33:36;;;;;;;4.43;1.10;;;11.50;67.10;;;;;;5010823;28;20059;-80
2021/04/10 07:36:07;;;;;;;4.60;1.63;;;11.60;67.30;;;;;;5000171;28;20056;-79
2021/04/10 07:38:41;;;;;;;5.38;1.42;;;11.60;66.80;;;;;;5005419;28;20030;-80
2021/04/10 07:41:13;;;;;;;3.35;1.67;;;11.60;67.10;;;;;;5014598;28;20030;-80
2021/04/10 07:43:39;;;;;;;12.18;1.58;;;11.60;66.80;;;;;;5004406;28;20022;-79
2021/04/10 07:46:11;;;;;;;4.55;1.30;;;11.60;67.40;;;;;;4996818;28;20540;-78
2021/04/10 07:48:37;;;;;;;4.68;1.13;;;11.60;66.80;;;;;;5001482;28;20509;-76
2021/04/10 07:51:03;;;;;;;4.78;1.33;;;11.60;66.90;;;;;;4989362;28;20041;-78
2021/04/10 07:53:30;;;;;;;4.25;1.67;;;11.50;66.40;;;;;;4988895;28;20022;-78
2021/04/10 07:55:59;;;;;;;3.13;1.17;;;11.60;66.80;;;;;;5008434;28;20026;-78
2021/04/10 07:58:33;;;;;;;2.40;1.13;;;11.70;66.90;;;;;;5005674;28;20512;-79
2021/04/10 08:01:06;;;;;;;4.18;1.67;;;11.60;66.50;;;;;;5003418;28;20145;-79
2021/04/10 08:03:39;;;;;;;7.03;1.20;;;11.60;66.50;;;;;;4998006;28;20029;-79
2021/04/10 08:06:05;;;;;;;2.70;1.15;;;11.70;66.80;;;;;;5003068;28;20037;-78
2021/04/10 08:08:32;;;;;;;3.42;1.27;;;11.60;66.70;;;;;;5009259;28;20037;-81
2021/04/10 08:11:03;;;;;;;6.72;1.25;;;11.50;68.20;;;;;;5018876;28;20030;-80
2021/04/10 08:13:30;;;;;;;2.92;1.17;;;11.40;69.50;;;;;;5011266;28;20133;-80
2021/04/10 08:16:16;;;;;;;2.58;1.10;;;11.50;70.80;;;;;;4992483;28;20031;-78
2021/04/10 08:18:51;;;;;;;7.57;1.48;;;11.50;71.40;;;;;;5003668;28;20045;-79
2021/04/10 08:21:21;;;;;;;6.57;1.80;;;11.50;71.60;;;;;;4998651;28;20469;-79
2021/04/10 08:23:48;;;;;;;3.80;1.00;;;11.50;71.70;;;;;;4997846;28;20493;-79
2021/04/10 08:26:15;;;;;;;5.10;1.30;;;11.50;71.00;;;;;;4997124;28;20044;-79
2021/04/10 08:28:42;;;;;;;4.97;1.48;;;11.50;71.20;;;;;;5003597;28;20041;-78
2021/04/10 08:31:23;;;;;;;9.02;1.23;;;11.60;70.30;;;;;;4995223;28;20429;-80
2021/04/10 08:34:08;;;;;;;3.42;1.25;;;11.60;70.40;;;;;;5012962;28;20072;-79
2021/04/10 08:36:38;;;;;;;2.65;1.20;;;11.60;69.90;;;;;;4988369;28;20134;-78
2021/04/10 08:39:05;;;;;;;5.00;0.98;;;11.60;69.50;;;;;;4998926;28;20044;-79
2021/04/10 08:41:31;;;;;;;5.70;1.40;;;11.70;70.00;;;;;;4994183;28;20050;-75
2021/04/10 08:43:59;;;;;;;3.05;1.27;;;11.70;69.80;;;;;;5008912;28;20576;-76
2021/04/10 08:46:25;;;;;;;4.25;1.10;;;11.80;69.70;;;;;;5005051;28;20029;-76
2021/04/10 08:48:56;;;;;;;4.40;1.05;;;11.80;69.60;;;;;;5003968;28;20034;-77
2021/04/10 08:51:24;;;;;;;5.03;1.50;;;11.90;70.00;;;;;;5013793;28;20369;-80
2021/04/10 08:53:52;;;;;;;4.65;1.20;;;11.90;70.90;;;;;;5010781;28;20029;-78
2021/04/10 08:56:23;;;;;;;3.50;1.00;;;11.90;70.90;;;;;;5007775;28;20112;-76
2021/04/10 08:58:49;;;;;;;3.65;1.83;;;11.80;70.20;;;;;;5012134;28;20487;-78
2021/04/10 09:01:26;;;;;;;4.28;1.30;;;11.80;70.30;;;;;;5011621;28;20037;-77
2021/04/10 09:03:53;;;;;;;4.55;1.30;;;11.80;69.00;;;;;;5017213;28;20034;-79
2021/04/10 09:06:31;;;;;;;3.72;1.45;;;11.80;69.20;;;;;;5007097;28;20085;-80
2021/04/10 09:09:12;;;;;;;6.13;2.08;;;11.80;68.40;;;;;;5018643;28;20520;-79
2021/04/10 09:11:39;;;;;;;5.40;0.90;;;11.80;67.90;;;;;;5017396;28;20048;-79
2021/04/10 09:14:05;;;;;;;2.80;1.15;;;11.80;66.20;;;;;;5014292;28;20033;-81
2021/04/10 09:16:56;;;;;;;8.15;1.08;;;11.90;65.60;;;;;;5014552;28;20021;-80
2021/04/10 09:19:55;;;;;;;2.70;0.88;;;11.90;65.10;;;;;;5019689;28;20068;-80
2021/04/10 09:22:45;;;;;;;5.72;1.77;;;12.00;64.60;;;;;;5006761;28;20453;-80
2021/04/10 09:25:12;;;;;;;2.50;1.27;;;12.00;63.60;;;;;;5001375;28;20081;-79
2021/04/10 09:27:41;;;;;;;6.25;0.68;;;12.10;64.50;;;;;;4992544;28;20037;-79
2021/04/10 09:30:07;;;;;;;3.75;1.52;;;12.10;63.90;;;;;;5008013;28;20144;-78
2021/04/10 09:32:53;;;;;;;5.28;1.05;;;12.10;63.50;;;;;;5009374;28;20033;-80
2021/04/10 09:35:23;;;;;;;1.58;1.00;;;12.20;63.50;;;;;;5014465;28;20069;-80
2021/04/10 09:37:54;;;;;;;3.17;1.00;;;12.20;62.60;;;;;;5002964;28;20538;-79
2021/04/10 09:40:43;;;;;;;5.78;1.35;;;12.30;62.50;;;;;;5012996;28;20067;-77
2021/04/10 09:43:09;;;;;;;9.90;1.77;;;12.30;61.40;;;;;;4983066;28;20044;-78
2021/04/10 09:45:38;;;;;;;3.47;1.58;;;12.40;61.70;;;;;;4984913;28;20037;-77
2021/04/10 09:48:04;;;;;;;2.58;1.10;;;12.50;62.80;;;;;;4993026;28;20030;-78
2021/04/10 09:50:43;;;;;;;2.50;0.82;;;12.50;61.00;;;;;;4983229;28;20034;-76
2021/04/10 09:53:17;;;;;;;1.92;0.80;;;12.50;59.90;;;;;;4980192;28;20026;-77
2021/04/10 09:56:06;;;;;;;1.50;1.00;;;12.60;59.50;;;;;;4995772;28;20033;-76
2021/04/10 09:58:37;;;;;;;7.25;1.40;;;12.60;59.30;;;;;;5001558;28;20615;-75
2021/04/10 10:01:06;;;;;;;2.47;0.85;;;12.70;59.10;;;;;;4996296;28;20474;-76
2021/04/10 10:03:32;;;;;;;4.93;0.93;;;12.70;57.30;;;;;;4993626;28;20025;-76
2021/04/10 10:05:58;;;;;;;4.45;1.35;;;12.80;57.80;;;;;;4998245;28;20053;-76
2021/04/10 10:08:30;;;;;;;11.68;1.20;;;12.80;57.30;;;;;;4981553;28;20025;-77
2021/04/10 10:10:57;;;;;;;3.20;1.20;;;12.80;57.40;;;;;;4999163;28;20494;-76
2021/04/10 10:13:28;;;;;;;4.30;1.65;;;12.90;57.40;;;;;;4993695;28;20393;-76
2021/04/10 10:15:54;;;;;;;11.95;3.00;;;12.90;56.50;;;;;;4994884;28;20041;-79
2021/04/10 10:18:30;;;;;;;8.07;2.22;;;12.90;54.60;;;;;;4988908;28;20029;-84
2021/04/10 10:21:01;;;;;;;6.90;2.83;;;13.00;55.10;;;;;;5004669;28;20401;-80
2021/04/10 10:23:32;;;;;;;9.13;1.90;;;13.10;55.80;;;;;;5007296;28;20034;-80
2021/04/10 10:26:09;;;;;;;3.90;1.23;;;13.10;54.20;;;;;;5007677;28;20080;-80
2021/04/10 10:28:36;;;;;;;2.65;1.33;;;13.20;52.90;;;;;;5004308;28;20037;-82
2021/04/10 10:31:11;;;;;;;17.17;4.22;;;13.40;52.70;;;;;;5002363;28;20131;-80
2021/04/10 10:33:38;;;;;;;4.22;1.75;;;13.50;51.80;;;;;;5000184;28;20030;-80
2021/04/10 10:36:05;;;;;;;2.83;1.08;;;13.60;50.80;;;;;;5015047;28;20128;-82
2021/04/10 10:38:36;;;;;;;3.08;1.02;;;13.70;50.10;;;;;;4996942;28;20028;-83
2021/04/10 10:41:04;;;;;;;2.65;1.00;;;13.60;48.40;;;;;;5009836;28;20082;-83
2021/04/10 10:43:36;;;;;;;3.47;1.08;;;13.60;48.10;;;;;;4999850;28;20071;-85
2021/04/10 10:46:04;;;;;;;3.78;1.13;;;13.60;47.60;;;;;;4996306;28;20026;-81
2021/04/10 10:48:38;;;;;;;3.42;0.98;;;13.70;48.50;;;;;;5003037;28;20033;-79
2021/04/10 10:51:07;;;;;;;4.80;0.98;;;13.80;47.80;;;;;;5003624;28;20088;-80
2021/04/10 10:53:38;;;;;;;7.13;1.02;;;13.70;46.00;;;;;;5004787;28;20026;-81
2021/04/10 10:56:06;;;;;;;3.35;0.85;;;13.70;45.30;;;;;;5007961;28;20057;-81
2021/04/10 10:58:41;;;;;;;4.32;1.73;;;13.90;45.50;;;;;;5009153;28;20045;-83
2021/04/10 11:01:27;;;;;;;1.42;0.77;;;13.90;44.60;;;;;;5015477;28;20041;-83
2021/04/10 11:04:02;;;;;;;8.85;0.98;;;14.10;44.40;;;;;;5016960;28;20021;-82
2021/04/10 11:06:33;;;;;;;2.05;0.73;;;14.20;45.20;;;;;;4997149;28;20036;-83
2021/04/10 11:09:02;;;;;;;6.55;0.90;;;14.40;42.20;;;;;;5019534;28;20029;-82
2021/04/10 11:11:46;;;;;;;3.03;0.88;;;14.50;42.10;;;;;;5023822;28;20022;-80
2021/04/10 11:14:18;;;;;;;1.63;0.82;;;14.70;41.80;;;;;;5018154;28;20038;-83
2021/04/10 11:16:51;;;;;;;3.08;1.00;;;14.90;41.80;;;;;;5021701;28;20029;-84
2021/04/10 11:19:33;;;;;;;4.93;1.25;;;14.70;41.50;;;;;;5029463;28;20083;-80
2021/04/10 11:22:01;;;;;;;2.30;1.13;;;14.90;40.50;;;;;;5016535;28;20029;-79
2021/04/10 11:24:42;;;;;;;4.50;1.10;;;14.90;40.40;;;;;;5025779;28;20109;-78
2021/04/10 11:27:22;;;;;;;4.90;1.30;;;15.20;39.50;;;;;;5022146;28;20037;-82
2021/04/10 11:30:03;;;;;;;3.42;1.10;;;15.30;39.00;;;;;;5011996;28;20028;-79
2021/04/10 11:32:40;;;;;;;2.45;0.90;;;15.50;37.90;;;;;;5025660;28;20098;-89
2021/04/10 11:35:22;;;;;;;5.20;1.10;;;15.60;37.90;;;;;;5016609;28;20026;-83
2021/04/10 11:37:50;;;;;;;3.20;1.17;;;15.70;37.50;;;;;;5029555;28;20002;-85
2021/04/10 11:40:23;;;;;;;3.20;1.02;;;15.50;36.40;;;;;;5020716;28;20038;-82
2021/04/10 11:43:04;;;;;;;2.08;1.15;;;15.80;37.10;;;;;;5022928;28;20092;-81
2021/04/10 11:45:36;;;;;;;4.03;1.10;;;16.10;36.00;;;;;;5017175;28;20026;-81
2021/04/10 11:48:23;;;;;;;5.45;0.90;;;16.10;34.90;;;;;;4992457;28;20390;-83
2021/04/10 11:50:57;;;;;;;1.55;0.80;;;15.90;35.70;;;;;;5012025;28;20026;-79
2021/04/10 11:53:22;;;;;;;4.40;0.90;;;16.20;34.80;;;;;;5007965;28;20505;-79
2021/04/10 11:55:50;;;;;;;3.15;1.00;;;16.30;35.10;;;;;;5010243;28;20026;-77
2021/04/10 11:58:36;;;;;;;3.85;1.00;;;16.40;34.00;;;;;;5016186;28;20105;-78
2021/04/10 12:01:07;;;;;;;1.25;0.80;;;16.60;34.40;;;;;;5004550;28;20030;-78
2021/04/10 12:03:45;;;;;;;3.53;1.00;;;16.60;33.30;;;;;;5009008;28;20401;-83
2021/04/10 12:06:28;;;;;;;7.70;1.00;;;16.90;33.70;;;;;;5006265;28;20034;-85
2021/04/10 12:08:54;;;;;;;2.15;0.93;;;16.70;32.10;;;;;;5005878;28;20037;-83
2021/04/10 12:11:24;;;;;;;3.05;0.77;;;16.70;31.90;;;;;;5021982;28;20033;-83
2021/04/10 12:13:49;;;;;;;2.17;0.77;;;17.20;31.80;;;;;;5007193;28;20042;-83
2021/04/10 12:16:15;;;;;;;4.40;1.10;;;17.70;29.90;;;;;;5012679;28;20084;-83
2021/04/10 12:18:41;;;;;;;3.08;0.82;;;17.70;29.60;;;;;;5019376;28;20026;-82
2021/04/10 12:21:06;;;;;;;3.75;1.10;;;17.70;29.20;;;;;;5019899;28;20037;-84
2021/04/10 12:23:32;;;;;;;1.75;0.55;;;18.00;29.40;;;;;;5020050;28;20033;-86
2021/04/10 12:25:58;;;;;;;3.63;1.33;;;18.20;29.50;;;;;;5020438;28;20032;-81
2021/04/10 12:28:24;;;;;;;2.65;0.80;;;19.30;27.90;;;;;;5011373;28;20022;-84
2021/04/10 12:30:50;;;;;;;2.40;0.80;;;19.80;26.40;;;;;;5013393;28;20085;-84
2021/04/10 12:33:16;;;;;;;1.77;0.60;;;19.20;26.60;;;;;;5014680;28;20049;-81
2021/04/10 12:35:41;;;;;;;4.15;0.93;;;18.60;26.80;;;;;;5013360;28;20036;-84
2021/04/10 12:38:07;;;;;;;5.05;1.55;;;18.30;26.70;;;;;;5016395;28;20026;-81
2021/04/10 12:40:33;;;;;;;5.25;1.15;;;18.10;27.40;;;;;;5001349;28;20054;-86
2021/04/10 12:42:58;;;;;;;6.35;0.80;;;19.10;27.50;;;;;;5012685;28;20489;-82
2021/04/10 12:45:24;;;;;;;3.53;1.58;;;20.40;24.90;;;;;;5009958;28;20029;-83
2021/04/10 12:47:50;;;;;;;1.23;0.68;;;21.50;23.30;;;;;;5011143;28;20040;-84
2021/04/10 12:50:20;;;;;;;2.90;0.88;;;22.10;22.10;;;;;;5012192;28;20038;-82
2021/04/10 12:52:46;;;;;;;4.43;1.08;;;22.80;20.30;;;;;;4989203;28;20409;-80
2021/04/10 12:55:13;;;;;;;1.90;0.50;;;23.20;20.00;;;;;;5006269;28;20038;-80